sensor_id;sensor_type;location;lat;lon;timestamp;P1;durP1;ratioP1;P2;durP2;ratioP2
8885;SDS011;4479;51.162;13.906;2022-08-19T00:04:32;6.53;;;6.03;;
8885;SDS011;4479;51.162;13.906;2022-08-19T00:14:38;5.97;;;5.57;;
8885;SDS011;4479;51.162;13.906;2022-08-19T00:24:41;6.87;;;6.20;;
8885;SDS011;4479;51.162;13.906;2022-08-19T00:34:45;6.27;;;5.57;;
8885;SDS011;4479;51.162;13.906;2022-08-19T00:44:48;6.17;;;5.67;;
8885;SDS011;4479;51.162;13.906;2022-08-19T00:54:53;6.53;;;5.93;;
8885;SDS011;4479;51.162;13.906;2022-08-19T01:04:58;7.10;;;6.50;;
8885;SDS011;4479;51.162;13.906;2022-08-19T01:15:04;8.40;;;7.70;;
8885;SDS011;4479;51.162;13.906;2022-08-19T01:25:10;8.20;;;7.40;;
8885;SDS011;4479;51.162;13.906;2022-08-19T01:35:16;8.33;;;7.63;;
8885;SDS011;4479;51.162;13.906;2022-08-19T01:45:22;9.43;;;8.50;;
8885;SDS011;4479;51.162;13.906;2022-08-19T01:55:26;10.00;;;9.10;;
8885;SDS011;4479;51.162;13.906;2022-08-19T02:05:32;8.57;;;7.77;;
8885;SDS011;4479;51.162;13.906;2022-08-19T02:15:35;8.73;;;7.93;;
8885;SDS011;4479;51.162;13.906;2022-08-19T02:25:40;9.50;;;8.67;;
8885;SDS011;4479;51.162;13.906;2022-08-19T02:35:44;8.90;;;8.10;;
8885;SDS011;4479;51.162;13.906;2022-08-19T02:45:49;9.60;;;8.80;;
8885;SDS011;4479;51.162;13.906;2022-08-19T02:55:52;9.87;;;8.97;;
8885;SDS011;4479;51.162;13.906;2022-08-19T03:06:07;10.43;;;9.33;;
8885;SDS011;4479;51.162;13.906;2022-08-19T03:16:11;8.93;;;8.10;;
8885;SDS011;4479;51.162;13.906;2022-08-19T03:26:15;9.23;;;8.40;;
8885;SDS011;4479;51.162;13.906;2022-08-19T03:36:19;9.33;;;8.33;;
8885;SDS011;4479;51.162;13.906;2022-08-19T03:46:26;8.50;;;7.70;;
8885;SDS011;4479;51.162;13.906;2022-08-19T03:56:30;9.67;;;8.87;;
8885;SDS011;4479;51.162;13.906;2022-08-19T04:06:38;9.33;;;8.43;;
8885;SDS011;4479;51.162;13.906;2022-08-19T04:16:41;9.37;;;8.50;;
8885;SDS011;4479;51.162;13.906;2022-08-19T04:26:46;10.00;;;9.13;;
8885;SDS011;4479;51.162;13.906;2022-08-19T04:36:50;10.27;;;9.37;;
8885;SDS011;4479;51.162;13.906;2022-08-19T05:33:15;9.57;;;8.57;;
8885;SDS011;4479;51.162;13.906;2022-08-19T05:43:19;9.13;;;8.33;;
8885;SDS011;4479;51.162;13.906;2022-08-19T05:53:24;9.10;;;8.30;;
8885;SDS011;4479;51.162;13.906;2022-08-19T06:03:28;10.13;;;9.13;;
8885;SDS011;4479;51.162;13.906;2022-08-19T06:13:34;10.37;;;9.20;;
8885;SDS011;4479;51.162;13.906;2022-08-19T06:23:40;9.07;;;8.17;;
8885;SDS011;4479;51.162;13.906;2022-08-19T06:33:46;8.77;;;8.03;;
8885;SDS011;4479;51.162;13.906;2022-08-19T06:43:50;7.77;;;7.07;;
8885;SDS011;4479;51.162;13.906;2022-08-19T06:53:55;7.27;;;6.57;;
8885;SDS011;4479;51.162;13.906;2022-08-19T07:03:59;6.80;;;6.07;;
8885;SDS011;4479;51.162;13.906;2022-08-19T07:14:04;6.80;;;6.10;;
8885;SDS011;4479;51.162;13.906;2022-08-19T07:24:08;6.87;;;6.27;;
8885;SDS011;4479;51.162;13.906;2022-08-19T07:34:14;6.67;;;6.07;;
8885;SDS011;4479;51.162;13.906;2022-08-19T07:44:18;7.30;;;6.70;;
8885;SDS011;4479;51.162;13.906;2022-08-19T07:54:24;8.03;;;7.33;;
8885;SDS011;4479;51.162;13.906;2022-08-19T08:04:30;7.63;;;7.03;;
8885;SDS011;4479;51.162;13.906;2022-08-19T08:14:59;7.63;;;6.97;;
8885;SDS011;4479;51.162;13.906;2022-08-19T08:25:07;7.40;;;6.80;;
8885;SDS011;4479;51.162;13.906;2022-08-19T08:35:14;7.83;;;7.13;;
8885;SDS011;4479;51.162;13.906;2022-08-19T08:45:20;7.70;;;6.97;;
8885;SDS011;4479;51.162;13.906;2022-08-19T08:55:28;7.50;;;6.77;;
8885;SDS011;4479;51.162;13.906;2022-08-19T09:05:34;7.87;;;6.63;;
8885;SDS011;4479;51.162;13.906;2022-08-19T09:15:50;7.60;;;6.90;;
8885;SDS011;4479;51.162;13.906;2022-08-19T09:26:05;7.27;;;6.67;;
8885;SDS011;4479;51.162;13.906;2022-08-19T09:36:12;7.93;;;7.23;;
8885;SDS011;4479;51.162;13.906;2022-08-19T09:46:17;7.03;;;6.43;;
8885;SDS011;4479;51.162;13.906;2022-08-19T09:56:24;6.87;;;6.27;;
8885;SDS011;4479;51.162;13.906;2022-08-19T10:06:28;7.73;;;7.10;;
8885;SDS011;4479;51.162;13.906;2022-08-19T10:16:36;8.10;;;7.30;;
8885;SDS011;4479;51.162;13.906;2022-08-19T10:26:41;8.73;;;7.83;;
8885;SDS011;4479;51.162;13.906;2022-08-19T10:36:49;9.03;;;8.23;;
8885;SDS011;4479;51.162;13.906;2022-08-19T10:46:53;9.40;;;8.50;;
8885;SDS011;4479;51.162;13.906;2022-08-19T10:56:58;8.20;;;7.50;;
8885;SDS011;4479;51.162;13.906;2022-08-19T11:07:02;8.13;;;7.43;;
8885;SDS011;4479;51.162;13.906;2022-08-19T11:17:08;8.90;;;8.13;;
8885;SDS011;4479;51.162;13.906;2022-08-19T11:27:14;10.43;;;8.63;;
8885;SDS011;4479;51.162;13.906;2022-08-19T11:37:20;8.20;;;7.57;;
8885;SDS011;4479;51.162;13.906;2022-08-19T11:47:24;9.37;;;8.53;;
8885;SDS011;4479;51.162;13.906;2022-08-19T11:57:29;9.20;;;8.40;;
8885;SDS011;4479;51.162;13.906;2022-08-19T12:07:33;10.70;;;9.80;;
8885;SDS011;4479;51.162;13.906;2022-08-19T12:17:40;31.77;;;10.10;;
8885;SDS011;4479;51.162;13.906;2022-08-19T12:27:44;25.77;;;11.53;;
8885;SDS011;4479;51.162;13.906;2022-08-19T12:37:49;11.87;;;10.67;;
8885;SDS011;4479;51.162;13.906;2022-08-19T12:47:53;14.97;;;13.40;;
8885;SDS011;4479;51.162;13.906;2022-08-19T12:57:58;19.53;;;14.03;;
8885;SDS011;4479;51.162;13.906;2022-08-19T13:08:03;16.27;;;13.97;;
8885;SDS011;4479;51.162;13.906;2022-08-19T13:18:09;17.30;;;15.20;;
8885;SDS011;4479;51.162;13.906;2022-08-19T13:28:13;13.67;;;12.27;;
8885;SDS011;4479;51.162;13.906;2022-08-19T13:38:19;12.23;;;11.00;;
8885;SDS011;4479;51.162;13.906;2022-08-19T13:48:24;12.80;;;11.53;;
8885;SDS011;4479;51.162;13.906;2022-08-19T13:58:30;14.47;;;12.97;;
8885;SDS011;4479;51.162;13.906;2022-08-19T14:08:33;17.53;;;14.53;;
8885;SDS011;4479;51.162;13.906;2022-08-19T14:18:41;18.63;;;14.13;;
8885;SDS011;4479;51.162;13.906;2022-08-19T14:28:46;12.93;;;11.63;;
8885;SDS011;4479;51.162;13.906;2022-08-19T14:38:51;14.23;;;12.87;;
8885;SDS011;4479;51.162;13.906;2022-08-19T14:48:55;14.83;;;13.33;;
8885;SDS011;4479;51.162;13.906;2022-08-19T14:59:00;14.97;;;13.47;;
8885;SDS011;4479;51.162;13.906;2022-08-19T15:09:04;15.40;;;13.77;;
8885;SDS011;4479;51.162;13.906;2022-08-19T15:19:09;14.83;;;13.33;;
8885;SDS011;4479;51.162;13.906;2022-08-19T15:29:13;15.47;;;13.87;;
8885;SDS011;4479;51.162;13.906;2022-08-19T15:39:18;14.27;;;12.87;;
8885;SDS011;4479;51.162;13.906;2022-08-19T15:49:22;13.67;;;12.33;;
8885;SDS011;4479;51.162;13.906;2022-08-19T15:59:27;14.80;;;12.97;;
8885;SDS011;4479;51.162;13.906;2022-08-19T16:09:47;15.83;;;14.23;;
8885;SDS011;4479;51.162;13.906;2022-08-19T16:19:52;13.27;;;11.97;;
8885;SDS011;4479;51.162;13.906;2022-08-19T16:29:56;13.00;;;11.80;;
8885;SDS011;4479;51.162;13.906;2022-08-19T16:40:02;14.30;;;12.90;;
8885;SDS011;4479;51.162;13.906;2022-08-19T16:50:08;15.80;;;14.07;;
8885;SDS011;4479;51.162;13.906;2022-08-19T17:00:14;15.03;;;13.53;;
8885;SDS011;4479;51.162;13.906;2022-08-19T17:10:19;15.40;;;13.83;;
8885;SDS011;4479;51.162;13.906;2022-08-19T17:20:24;14.67;;;13.23;;
8885;SDS011;4479;51.162;13.906;2022-08-19T17:30:31;14.07;;;12.73;;
8885;SDS011;4479;51.162;13.906;2022-08-19T17:40:37;14.87;;;13.30;;
8885;SDS011;4479;51.162;13.906;2022-08-19T17:50:41;14.90;;;13.43;;
8885;SDS011;4479;51.162;13.906;2022-08-19T18:00:46;14.83;;;13.33;;
8885;SDS011;4479;51.162;13.906;2022-08-19T18:10:50;11.27;;;10.20;;
8885;SDS011;4479;51.162;13.906;2022-08-19T18:20:55;12.07;;;10.97;;
8885;SDS011;4479;51.162;13.906;2022-08-19T18:31:00;11.57;;;10.50;;
8885;SDS011;4479;51.162;13.906;2022-08-19T18:41:06;12.60;;;11.40;;
8885;SDS011;4479;51.162;13.906;2022-08-19T18:51:27;11.47;;;10.37;;
8885;SDS011;4479;51.162;13.906;2022-08-19T19:01:33;11.77;;;10.60;;
8885;SDS011;4479;51.162;13.906;2022-08-19T19:11:41;11.53;;;10.43;;
8885;SDS011;4479;51.162;13.906;2022-08-19T19:21:48;11.67;;;10.50;;
8885;SDS011;4479;51.162;13.906;2022-08-19T19:31:53;10.90;;;9.80;;
8885;SDS011;4479;51.162;13.906;2022-08-19T19:41:58;11.37;;;10.27;;
8885;SDS011;4479;51.162;13.906;2022-08-19T19:52:04;10.47;;;9.47;;
8885;SDS011;4479;51.162;13.906;2022-08-19T20:02:09;11.73;;;10.63;;
8885;SDS011;4479;51.162;13.906;2022-08-19T20:12:16;15.07;;;13.67;;
8885;SDS011;4479;51.162;13.906;2022-08-19T20:22:21;13.57;;;12.27;;
8885;SDS011;4479;51.162;13.906;2022-08-19T20:32:26;13.30;;;12.00;;
8885;SDS011;4479;51.162;13.906;2022-08-19T20:42:31;14.03;;;12.70;;
8885;SDS011;4479;51.162;13.906;2022-08-19T20:52:35;12.93;;;11.73;;
8885;SDS011;4479;51.162;13.906;2022-08-19T21:02:41;13.50;;;12.20;;
8885;SDS011;4479;51.162;13.906;2022-08-19T21:12:47;13.50;;;12.20;;
8885;SDS011;4479;51.162;13.906;2022-08-19T21:22:54;12.60;;;11.30;;
8885;SDS011;4479;51.162;13.906;2022-08-19T21:32:58;13.47;;;12.00;;
8885;SDS011;4479;51.162;13.906;2022-08-19T21:43:06;12.83;;;11.60;;
8885;SDS011;4479;51.162;13.906;2022-08-19T21:53:10;12.53;;;11.33;;
8885;SDS011;4479;51.162;13.906;2022-08-19T22:03:17;12.00;;;10.80;;
8885;SDS011;4479;51.162;13.906;2022-08-19T22:13:21;14.23;;;12.77;;
8885;SDS011;4479;51.162;13.906;2022-08-19T22:23:26;14.20;;;12.77;;
8885;SDS011;4479;51.162;13.906;2022-08-19T22:33:30;13.20;;;11.97;;
8885;SDS011;4479;51.162;13.906;2022-08-19T22:43:35;12.97;;;11.73;;
8885;SDS011;4479;51.162;13.906;2022-08-19T22:53:39;13.27;;;11.97;;
8885;SDS011;4479;51.162;13.906;2022-08-19T23:03:47;13.10;;;11.83;;
8885;SDS011;4479;51.162;13.906;2022-08-19T23:13:51;13.17;;;11.77;;
8885;SDS011;4479;51.162;13.906;2022-08-19T23:23:56;12.87;;;11.53;;
8885;SDS011;4479;51.162;13.906;2022-08-19T23:34:00;12.03;;;10.90;;
8885;SDS011;4479;51.162;13.906;2022-08-19T23:44:06;12.80;;;11.50;;
8885;SDS011;4479;51.162;13.906;2022-08-19T23:54:10;13.27;;;11.47;;
